Time;durP1;ratioP1;P1;durP2;ratioP2;P2;SDS_P1;SDS_P2;PMS_P1;PMS_P2;Temp;Humidity;BMP_temperature;BMP_pressure;BME280_temperature;BME280_humidity;BME280_pressure;Samples;Min_cycle;Max_cycle;Signal;HPM_P1;HPM_P2
2023/12/12 00:00:33;;;;;;;;;;;;;;;15.12;33.47;99055.30;108359;1252;72333;-64
2023/12/12 00:03:01;;;;;;;12.70;9.30;;;;;;;15.22;33.41;99052.27;108147;1253;60623;-63
2023/12/12 00:05:29;;;;;;;14.70;10.60;;;;;;;15.32;33.45;99056.72;108281;1253;59939;-63
2023/12/12 00:07:57;;;;;;;11.30;9.40;;;;;;;15.45;33.07;99050.60;108199;1252;72787;-63
2023/12/12 00:10:25;;;;;;;13.90;10.50;;;;;;;15.47;33.20;99054.05;108394;1252;68260;-63
2023/12/12 00:12:52;;;;;;;12.50;9.70;;;;;;;15.40;33.19;99053.46;108142;1253;72203;-63
2023/12/12 00:15:20;;;;;;;;;;;;;;;15.37;33.18;99054.39;108107;1254;60674;-63
2023/12/12 00:17:48;;;;;;;13.60;10.20;;;;;;;15.37;32.98;99055.08;108187;1253;59464;-63
2023/12/12 00:20:16;;;;;;;13.10;9.70;;;;;;;15.31;33.09;99058.02;108014;1251;73816;-62
2023/12/12 00:22:44;;;;;;;;;;;;;;;15.18;33.22;99057.48;108170;1252;69134;-62
2023/12/12 00:25:11;;;;;;;;;;;;;;;15.22;33.20;99063.27;108188;1253;71749;-63
2023/12/12 00:27:39;;;;;;;12.20;9.40;;;;;;;15.24;33.08;99066.46;108203;1253;59479;-63
2023/12/12 00:30:07;;;;;;;14.10;10.30;;;;;;;15.08;33.32;99063.90;108156;1253;59732;-62
2023/12/12 00:32:35;;;;;;;16.60;11.20;;;;;;;15.12;33.14;99058.78;108395;1252;74557;-62
2023/12/12 00:35:02;;;;;;;12.90;10.40;;;;;;;15.01;33.01;99058.52;108254;1252;69209;-63
2023/12/12 00:37:30;;;;;;;13.80;10.20;;;;;;;14.85;33.18;99063.33;108221;1253;72370;-63
2023/12/12 00:39:58;;;;;;;13.70;10.30;;;;;;;14.69;33.30;99065.31;108381;1252;60578;-62
2023/12/12 00:42:26;;;;;;;12.20;10.20;;;;;;;14.68;33.39;99067.71;108135;1252;60147;-63
2023/12/12 00:44:54;;;;;;;12.70;10.50;;;;;;;14.73;33.45;99063.30;108105;1253;73738;-63
2023/12/12 00:47:22;;;;;;;13.50;10.30;;;;;;;14.79;33.48;99061.81;107860;1253;70508;-63
2023/12/12 00:49:50;;;;;;;13.00;10.50;;;;;;;14.85;33.34;99061.95;108266;1253;72564;-63
2023/12/12 00:52:18;;;;;;;12.40;9.90;;;;;;;14.96;33.34;99069.27;108125;1253;61206;-63
2023/12/12 00:54:45;;;;;;;15.40;11.70;;;;;;;15.01;33.24;99065.25;108181;1253;59707;-62
2023/12/12 00:57:14;;;;;;;16.10;11.40;;;;;;;15.04;33.04;99058.83;108182;1253;73584;-61
2023/12/12 00:59:41;;;;;;;11.80;9.60;;;;;;;14.96;33.02;99054.79;108136;1252;69091;-62
2023/12/12 01:02:09;;;;;;;;;;;;;;;14.91;33.10;99044.36;108168;1253;72033;-63
2023/12/12 01:04:36;;;;;;;11.30;8.60;;;;;;;14.99;32.94;99035.02;108118;1253;60631;-62
2023/12/12 01:07:04;;;;;;;;;;;;;;;15.07;32.83;99037.64;108296;1253;60728;-62
2023/12/12 01:09:32;;;;;;;11.60;9.00;;;;;;;15.07;32.79;99033.58;108291;1253;73682;-62
2023/12/12 01:12:00;;;;;;;;;;;;;;;15.18;32.62;99028.17;108112;1255;69516;-61
2023/12/12 01:14:27;;;;;;;;;;;;;;;14.99;32.65;99023.72;108414;1252;72350;-61
2023/12/12 01:16:55;;;;;;;;;;;;;;;14.86;32.76;99018.33;108108;1253;59965;-61
2023/12/12 01:19:22;;;;;;;;;;;;;;;14.85;32.80;99016.81;108312;1253;60038;-61
2023/12/12 01:21:50;;;;;;;11.60;8.60;;;;;;;14.83;32.72;99018.47;108181;1252;74051;-61
2023/12/12 01:24:17;;;;;;;;;;;;;;;14.80;32.81;99016.92;108083;1255;69396;-61
2023/12/12 01:26:45;;;;;;;;;;;;;;;14.79;32.86;99013.11;108128;1252;72473;-61
2023/12/12 01:29:16;;;;;;;;;;;;;;;14.81;32.72;99008.77;108237;1252;60972;-62
2023/12/12 01:31:43;;;;;;;12.30;8.90;;;;;;;14.93;32.79;99012.87;108261;1251;61456;-62
2023/12/12 01:34:11;;;;;;;;;;;;;;;14.94;32.68;99010.85;108050;1253;72786;-61
2023/12/12 01:36:40;;;;;;;14.40;9.50;;;;;;;14.91;32.61;99006.63;108221;1252;70237;-61
2023/12/12 01:39:08;;;;;;;12.30;9.30;;;;;;;14.89;32.64;99008.55;108154;1251;72357;-62
2023/12/12 01:41:36;;;;;;;12.60;9.00;;;;;;;14.82;32.83;99004.83;108201;1253;59366;-62
2023/12/12 01:44:03;;;;;;;12.70;10.30;;;;;;;14.78;32.95;99005.61;108058;1253;60578;-63
2023/12/12 01:46:31;;;;;;;13.80;9.80;;;;;;;14.77;32.82;99006.21;108125;1253;73524;-63
2023/12/12 01:48:59;;;;;;;13.60;10.10;;;;;;;14.91;32.63;99002.07;108337;1252;69649;-61
2023/12/12 01:51:27;;;;;;;;;;;;;;;15.09;32.63;99001.50;107997;1254;72285;-62
2023/12/12 01:53:54;;;;;;;16.70;10.20;;;;;;;15.13;32.52;98997.30;108256;1251;59016;-62
2023/12/12 01:56:22;;;;;;;13.80;9.70;;;;;;;15.08;32.53;98992.92;107690;1251;60099;-62
2023/12/12 01:58:51;;;;;;;18.50;11.10;;;;;;;15.05;32.59;98989.61;108381;1252;73805;-62
2023/12/12 02:01:19;;;;;;;15.70;10.80;;;;;;;15.10;32.49;98989.94;107670;1253;69063;-62
2023/12/12 02:03:47;;;;;;;15.20;10.90;;;;;;;15.16;32.44;98982.75;107890;1254;73337;-62
2023/12/12 02:06:15;;;;;;;14.90;11.10;;;;;;;15.20;32.40;98976.48;107617;1254;59412;-62
2023/12/12 02:08:43;;;;;;;;;;;;;;;15.14;32.50;98972.37;107887;1253;59803;-62
2023/12/12 02:11:11;;;;;;;14.20;9.90;;;;;;;15.15;32.43;98972.30;108228;1253;73762;-62
2023/12/12 02:13:39;;;;;;;14.20;9.80;;;;;;;15.11;32.43;98966.91;108157;1253;70385;-62
2023/12/12 02:16:06;;;;;;;14.30;10.50;;;;;;;15.01;32.55;98962.48;108259;1253;72491;-62
2023/12/12 02:18:34;;;;;;;;;;;;;;;15.06;32.56;98958.64;108356;1252;60106;-62
2023/12/12 02:21:03;;;;;;;14.50;9.70;;;;;;;15.22;32.49;98954.98;108282;1253;59797;-62
2023/12/12 02:23:31;;;;;;;12.80;10.00;;;;;;;15.03;32.55;98953.76;108387;1252;74549;-62
2023/12/12 02:25:59;;;;;;;11.90;9.50;;;;;;;14.97;32.56;98953.31;108170;1252;69612;-61
2023/12/12 02:28:26;;;;;;;14.50;10.70;;;;;;;15.01;32.55;98951.25;108241;1253;72397;-62
2023/12/12 02:30:55;;;;;;;13.60;10.90;;;;;;;15.03;32.65;98951.77;108208;1253;60763;-62
2023/12/12 02:33:22;;;;;;;14.50;10.60;;;;;;;15.08;32.70;98950.02;108225;1251;61171;-62
2023/12/12 02:35:50;;;;;;;15.50;10.70;;;;;;;15.12;32.52;98943.85;108223;1252;74262;-62
2023/12/12 02:38:18;;;;;;;;;;;;;;;15.12;32.53;98948.29;108245;1253;69295;-63
2023/12/12 02:40:45;;;;;;;;;;;;;;;15.07;32.58;98953.09;108179;1253;71307;-62
2023/12/12 02:43:13;;;;;;;12.50;9.50;;;;;;;15.04;32.53;98957.16;108278;1253;60687;-62
2023/12/12 02:45:42;;;;;;;12.40;9.60;;;;;;;15.02;32.60;98953.83;108066;1252;60419;-62
2023/12/12 02:48:11;;;;;;;12.50;9.60;;;;;;;15.10;32.47;98946.54;108076;1253;72674;-62
2023/12/12 02:50:39;;;;;;;12.50;9.70;;;;;;;15.12;32.56;98941.59;107882;1253;69454;-62
2023/12/12 02:53:07;;;;;;;10.80;8.70;;;;;;;15.01;32.62;98942.08;107953;1252;73026;-62
2023/12/12 02:55:34;;;;;;;13.00;10.10;;;;;;;14.90;32.66;98940.17;108267;1252;59333;-61
2023/12/12 02:58:02;;;;;;;11.50;9.50;;;;;;;14.86;32.77;98937.69;108283;1254;60321;-62
2023/12/12 03:00:30;;;;;;;;;;;;;;;14.87;32.73;98941.13;108241;1253;74549;-63
2023/12/12 03:02:58;;;;;;;12.20;9.20;;;;;;;14.89;32.75;98948.04;108009;1254;68659;-62
2023/12/12 03:05:25;;;;;;;;;;;;;;;14.91;32.60;98952.33;108352;1252;72851;-62
2023/12/12 03:07:53;;;;;;;;;;;;;;;14.88;32.77;98947.41;107902;1253;451319;-61
2023/12/12 03:11:16;;;;;;;12.00;9.40;;;;;;;14.02;35.17;98953.29;101762;1290;601234;-61
2023/12/12 03:13:44;;;;;;;11.30;9.10;;;;;;;15.72;31.90;98946.38;103950;1269;59643;-61
2023/12/12 03:16:13;;;;;;;;;;;;;;;15.85;31.45;98943.52;103749;1270;60703;-61
2023/12/12 03:18:41;;;;;;;11.80;8.90;;;;;;;15.67;31.69;98938.63;104586;1262;72021;-61
2023/12/12 03:21:09;;;;;;;10.20;8.10;;;;;;;15.53;31.80;98940.92;104571;1262;69148;-61
2023/12/12 03:23:37;;;;;;;10.00;8.50;;;;;;;15.34;31.81;98952.85;104635;1259;73312;-61
2023/12/12 03:26:08;;;;;;;9.70;8.30;;;;;;;15.21;31.89;98948.92;106818;1250;161222;-62
2023/12/12 03:28:36;;;;;;;11.20;8.10;;;;;;;15.05;32.04;98943.70;108390;1256;59692;-62
2023/12/12 03:31:04;;;;;;;10.90;8.40;;;;;;;14.91;32.29;98949.16;108349;1250;72915;-62
2023/12/12 03:33:32;;;;;;;10.10;8.50;;;;;;;14.80;32.57;98953.64;107122;1250;69727;-60
2023/12/12 03:36:00;;;;;;;11.70;8.50;;;;;;;14.67;32.73;98955.91;105725;1250;72288;-61
2023/12/12 03:38:28;;;;;;;13.10;9.10;;;;;;;14.57;32.73;98948.87;104849;1254;59736;-61
2023/12/12 03:40:55;;;;;;;9.60;8.10;;;;;;;14.44;32.83;98948.88;104557;1257;60209;-61
2023/12/12 03:43:24;;;;;;;11.80;9.20;;;;;;;14.27;32.89;98951.30;104468;1256;73691;-61
2023/12/12 03:45:52;;;;;;;12.10;9.20;;;;;;;14.18;33.20;98956.13;104322;1250;69595;-61
2023/12/12 03:48:20;;;;;;;;;;;;;;;14.17;33.25;98963.95;104714;1256;72561;-61
2023/12/12 03:50:49;;;;;;;12.30;8.40;;;;;;;14.24;33.25;98967.67;104438;1256;61559;-61
2023/12/12 03:53:17;;;;;;;12.10;9.60;;;;;;;14.10;33.44;98970.23;104471;1258;59718;-61
2023/12/12 03:55:45;;;;;;;13.00;10.10;;;;;;;13.99;33.37;98974.16;105688;1257;72824;-61
2023/12/12 03:58:12;;;;;;;;;;;;;;;14.07;33.42;98971.16;104566;1264;69289;-61
2023/12/12 04:00:40;;;;;;;13.80;10.10;;;;;;;14.11;33.41;98963.13;104608;1256;72743;-61
2023/12/12 04:03:08;;;;;;;15.10;11.30;;;;;;;14.26;33.21;98961.58;104824;1256;60696;-61
2023/12/12 04:05:36;;;;;;;;;;;;;;;14.25;32.96;98961.64;104497;1259;60733;-61
2023/12/12 04:08:04;;;;;;;12.50;8.90;;;;;;;14.21;33.12;98959.59;105428;1251;73534;-61
2023/12/12 04:10:32;;;;;;;15.60;10.70;;;;;;;14.16;33.14;98960.13;104963;1256;70077;-60
2023/12/12 04:13:00;;;;;;;15.50;11.30;;;;;;;14.15;33.27;98957.02;104722;1256;71521;-62
2023/12/12 04:15:27;;;;;;;;;;;;;;;14.35;33.20;98956.16;104779;1253;60999;-61
2023/12/12 04:17:55;;;;;;;;;;;;;;;14.44;33.19;98957.54;104396;1253;59765;-61
2023/12/12 04:20:23;;;;;;;13.20;9.80;;;;;;;14.28;33.29;98954.05;104450;1256;72921;-60
2023/12/12 04:22:51;;;;;;;13.50;10.00;;;;;;;14.25;33.18;98953.91;108266;1251;69904;-62
2023/12/12 04:25:19;;;;;;;15.80;11.70;;;;;;;14.25;33.34;98952.99;108369;1253;72804;-62
2023/12/12 04:27:47;;;;;;;18.30;14.60;;;;;;;14.30;33.33;98953.17;108379;1252;60655;-62
2023/12/12 04:30:16;;;;;;;16.40;12.20;;;;;;;14.41;33.39;98957.01;108341;1251;59739;-63
2023/12/12 04:32:44;;;;;;;14.10;10.70;;;;;;;14.33;33.39;98957.06;108406;1253;73781;-62
2023/12/12 04:35:11;;;;;;;;;;;;;;;14.26;33.35;98960.52;108400;1252;68089;-61
2023/12/12 04:37:39;;;;;;;13.80;9.80;;;;;;;14.32;33.44;98961.88;108376;1253;72363;-61
2023/12/12 04:40:07;;;;;;;13.90;10.10;;;;;;;14.29;33.52;98962.42;108356;1251;60701;-62
2023/12/12 04:42:36;;;;;;;15.70;10.20;;;;;;;14.16;33.68;98970.90;108427;1252;59772;-61
2023/12/12 04:45:05;;;;;;;12.50;9.50;;;;;;;14.22;33.71;98971.55;108116;1253;72868;-62
2023/12/12 04:47:32;;;;;;;11.60;9.30;;;;;;;14.11;33.80;98976.36;108391;1253;69044;-62
2023/12/12 04:50:01;;;;;;;15.70;10.50;;;;;;;14.08;33.88;98972.31;108357;1251;73123;-62
2023/12/12 04:52:29;;;;;;;14.80;10.40;;;;;;;13.98;34.05;98974.02;108367;1253;60878;-61
2023/12/12 04:54:57;;;;;;;15.90;10.80;;;;;;;13.96;34.09;98971.52;108264;1251;59699;-62
2023/12/12 04:57:26;;;;;;;16.40;11.40;;;;;;;13.96;34.17;98973.09;108369;1251;73784;-62
2023/12/12 04:59:54;;;;;;;14.50;11.30;;;;;;;14.02;34.15;98963.89;108386;1253;69743;-62
2023/12/12 05:02:22;;;;;;;14.70;10.30;;;;;;;14.04;34.17;98965.15;108398;1253;72898;-62
2023/12/12 05:04:50;;;;;;;13.10;10.80;;;;;;;14.14;33.98;98964.70;108363;1251;61876;-62
2023/12/12 05:07:17;;;;;;;;;;;;;;;14.36;33.87;98959.83;108475;1252;60650;-63
2023/12/12 05:09:45;;;;;;;;;;;;;;;14.47;33.71;98963.16;108325;1250;71913;-62
2023/12/12 05:12:13;;;;;;;16.20;11.60;;;;;;;14.60;33.56;98962.42;108300;1250;69202;-60
2023/12/12 05:14:41;;;;;;;14.50;10.60;;;;;;;14.56;33.55;98968.51;108314;1250;72723;-62
2023/12/12 05:17:09;;;;;;;15.30;11.20;;;;;;;14.53;33.56;98966.94;108340;1252;61557;-62
2023/12/12 05:19:38;;;;;;;14.90;11.10;;;;;;;14.51;33.51;98965.00;108425;1250;59275;-62
2023/12/12 05:22:06;;;;;;;16.10;12.00;;;;;;;14.50;33.68;98953.02;108394;1253;72783;-62
2023/12/12 05:24:34;;;;;;;14.70;10.90;;;;;;;14.58;33.68;98946.15;108366;1251;69465;-62
2023/12/12 05:27:02;;;;;;;12.00;9.80;;;;;;;14.72;33.44;98945.73;108368;1250;74847;-62
2023/12/12 05:29:30;;;;;;;12.10;9.60;;;;;;;14.72;33.35;98944.29;108470;1250;62615;-62
2023/12/12 05:31:57;;;;;;;13.70;9.40;;;;;;;14.52;33.53;98939.67;108418;1251;60745;-62
2023/12/12 05:34:25;;;;;;;10.80;8.90;;;;;;;14.55;33.56;98942.09;108419;1252;72957;-61
2023/12/12 05:36:53;;;;;;;15.70;9.60;;;;;;;14.58;33.43;98954.44;108574;1250;69433;-62
2023/12/12 05:39:21;;;;;;;;;;;;;;;14.44;33.68;98959.12;108442;1253;72867;-62
2023/12/12 05:41:49;;;;;;;12.60;9.00;;;;;;;14.41;33.79;98952.96;108404;1254;61013;-62
2023/12/12 05:44:17;;;;;;;12.50;9.60;;;;;;;14.44;33.69;98954.48;108403;1250;58546;-61
2023/12/12 05:50:00;;;;;;;12.80;9.70;;;;;;;14.59;33.56;98949.42;101621;1292;601550;-61
2023/12/12 05:52:28;;;;;;;13.30;10.00;;;;;;;14.66;33.41;98951.60;103927;1273;61243;-62
2023/12/12 05:54:57;;;;;;;13.90;9.40;;;;;;;14.63;33.44;98951.31;103853;1266;59811;-62
2023/12/12 05:57:25;;;;;;;14.40;9.70;;;;;;;14.64;33.32;98954.90;104176;1271;72298;-62
2023/12/12 05:59:52;;;;;;;;;;;;;;;14.63;33.39;98962.03;103625;1280;69414;-63
2023/12/12 06:02:20;;;;;;;10.70;8.80;;;;;;;14.65;33.21;98966.84;103727;1278;72045;-63
2023/12/12 06:04:48;;;;;;;;;;;;;;;14.69;33.06;98968.64;104470;1260;155131;-63
2023/12/12 06:07:17;;;;;;;14.20;10.10;;;;;;;14.77;32.83;98974.83;104751;1252;59887;-62
2023/12/12 06:09:45;;;;;;;13.50;10.10;;;;;;;14.74;32.90;98975.41;105211;1257;71067;-62
2023/12/12 06:12:14;;;;;;;11.40;9.30;;;;;;;14.72;32.89;98973.59;106184;1252;70002;-62
2023/12/12 06:14:42;;;;;;;12.90;10.30;;;;;;;14.67;32.93;98977.65;104854;1257;72969;-62
2023/12/12 06:17:11;;;;;;;12.10;9.60;;;;;;;14.69;32.87;98983.98;105649;1257;60537;-62
2023/12/12 06:19:39;;;;;;;14.20;10.00;;;;;;;14.72;32.78;98983.98;105048;1260;59504;-62
2023/12/12 06:22:08;;;;;;;12.70;9.80;;;;;;;14.68;32.90;98985.70;104757;1260;72871;-62
2023/12/12 06:24:36;;;;;;;10.30;8.40;;;;;;;14.58;32.81;98982.48;104833;1262;71693;-62
2023/12/12 06:27:04;;;;;;;10.90;8.70;;;;;;;14.41;33.03;98978.89;105176;1254;71403;-61
2023/12/12 06:29:32;;;;;;;12.60;9.40;;;;;;;14.30;33.26;98974.55;105049;1254;60812;-61
2023/12/12 06:32:00;;;;;;;11.00;9.30;;;;;;;14.26;33.45;98974.26;104795;1260;59810;-61
2023/12/12 06:34:28;;;;;;;13.70;10.30;;;;;;;14.53;33.12;98976.10;104842;1260;72919;-61
2023/12/12 06:36:57;;;;;;;13.80;9.40;;;;;;;14.44;33.12;98980.24;105179;1260;69784;-65
2023/12/12 06:39:25;;;;;;;13.60;9.90;;;;;;;14.29;33.48;98981.27;105112;1251;72706;-62
2023/12/12 06:41:52;;;;;;;11.70;9.20;;;;;;;14.38;33.39;98981.34;104722;1260;60235;-62
2023/12/12 06:44:20;;;;;;;11.10;8.90;;;;;;;14.38;33.27;98982.79;105361;1255;60095;-61
2023/12/12 06:46:48;;;;;;;11.80;9.00;;;;;;;14.42;33.24;98987.09;104742;1257;73848;-61
2023/12/12 06:49:16;;;;;;;13.00;9.10;;;;;;;14.53;33.01;98985.67;104308;1256;69607;-61
2023/12/12 06:51:44;;;;;;;12.20;9.40;;;;;;;14.48;33.04;98973.44;104787;1254;72403;-61
2023/12/12 06:54:11;;;;;;;;;;;;;;;14.50;33.02;98976.67;105074;1254;61113;-60
2023/12/12 06:56:40;;;;;;;13.10;9.20;;;;;;;14.51;33.14;98974.84;105785;1254;59902;-62
2023/12/12 06:59:09;;;;;;;12.40;8.40;;;;;;;14.56;33.06;98975.23;105267;1251;75226;-63
2023/12/12 07:01:37;;;;;;;12.20;8.50;;;;;;;14.61;32.97;98973.98;105426;1260;71855;-61
2023/12/12 07:04:08;;;;;;;11.00;8.30;;;;;;;14.61;32.95;98970.64;105204;1258;72422;-62
2023/12/12 07:06:36;;;;;;;13.80;9.50;;;;;;;14.62;33.00;98974.10;107384;1251;60685;-63
2023/12/12 07:09:04;;;;;;;13.30;8.80;;;;;;;14.61;33.06;98972.73;107475;1254;59819;-63
2023/12/12 07:11:32;;;;;;;11.10;8.60;;;;;;;14.70;32.96;98973.71;106935;1257;72189;-63
2023/12/12 07:14:00;;;;;;;;;;;;;;;14.58;33.01;98978.22;105960;1251;69698;-63
2023/12/12 07:16:47;;;;;;;10.70;7.70;;;;;;;14.62;33.00;98979.21;106711;1258;73501;-64
2023/12/12 07:19:16;;;;;;;10.00;7.80;;;;;;;14.52;33.14;98982.55;106555;1254;60420;-60
2023/12/12 07:21:44;;;;;;;10.40;8.00;;;;;;;14.60;33.11;98986.43;105172;1251;60084;-62
2023/12/12 07:24:14;;;;;;;12.40;9.20;;;;;;;14.55;33.06;98987.79;104585;1267;71736;-60
2023/12/12 07:26:46;;;;;;;15.20;10.10;;;;;;;14.52;33.23;98990.84;105068;1259;71649;-59
2023/12/12 07:29:19;;;;;;;12.30;8.60;;;;;;;14.45;33.13;98986.67;104877;1260;71532;-60
2023/12/12 07:31:48;;;;;;;17.60;9.90;;;;;;;14.45;33.11;98993.73;104517;1259;64764;-60
2023/12/12 07:34:16;;;;;;;12.10;9.20;;;;;;;14.38;33.19;98988.26;105393;1257;60730;-60
2023/12/12 07:36:45;;;;;;;;;;;;;;;14.39;33.31;98992.02;105418;1251;73891;-59
2023/12/12 07:39:15;;;;;;;13.40;9.40;;;;;;;14.31;33.16;98987.52;104959;1253;69035;-58
2023/12/12 07:41:43;;;;;;;19.50;12.30;;;;;;;14.20;33.31;98988.95;104472;1254;72013;-60
2023/12/12 07:44:12;;;;;;;14.70;11.30;;;;;;;14.19;33.50;98988.63;104924;1256;61068;-62
2023/12/12 07:46:40;;;;;;;12.90;9.10;;;;;;;14.20;33.31;98985.27;104771;1251;60081;-61
2023/12/12 07:49:08;;;;;;;11.10;9.40;;;;;;;14.30;33.33;99000.42;104592;1253;73761;-61
2023/12/12 07:51:37;;;;;;;10.90;9.00;;;;;;;14.23;33.33;99005.64;105223;1254;69046;-65
2023/12/12 07:54:06;;;;;;;12.10;9.30;;;;;;;14.32;33.24;99002.27;104657;1254;72423;-60
2023/12/12 07:56:34;;;;;;;12.70;9.90;;;;;;;14.20;33.35;98995.99;105309;1251;60566;-59
2023/12/12 07:59:04;;;;;;;12.20;9.70;;;;;;;14.24;33.40;99006.66;104638;1257;60692;-60
2023/12/12 08:01:33;;;;;;;13.00;10.10;;;;;;;14.23;33.54;99012.03;105350;1251;72791;-61
2023/12/12 08:04:04;;;;;;;13.00;10.00;;;;;;;14.05;33.52;99008.11;104607;1260;69160;-61
2023/12/12 08:06:32;;;;;;;12.10;9.10;;;;;;;13.97;33.86;99017.13;105442;1257;72461;-60
2023/12/12 08:09:03;;;;;;;14.10;9.30;;;;;;;13.97;33.88;99014.98;104864;1263;61093;-60
2023/12/12 08:11:32;;;;;;;12.30;9.80;;;;;;;14.04;33.90;99012.77;104841;1254;61006;-60
2023/12/12 08:14:00;;;;;;;14.50;10.70;;;;;;;14.14;33.65;99015.65;105548;1266;73558;-60
2023/12/12 08:16:31;;;;;;;14.70;10.30;;;;;;;14.12;33.80;99011.86;104762;1254;69887;-61
2023/12/12 08:18:59;;;;;;;14.10;10.60;;;;;;;14.09;33.81;99011.02;104574;1251;75367;-62
2023/12/12 08:21:27;;;;;;;14.30;10.90;;;;;;;14.05;33.92;99015.14;105529;1254;61644;-61
2023/12/12 08:23:56;;;;;;;14.80;10.70;;;;;;;14.00;34.11;99020.06;104454;1257;63494;-61
2023/12/12 08:26:24;;;;;;;13.40;9.90;;;;;;;14.05;34.12;99011.80;104524;1257;72786;-62
2023/12/12 08:28:52;;;;;;;15.30;10.60;;;;;;;14.38;33.77;99010.95;104699;1254;70921;-60
2023/12/12 08:31:20;;;;;;;13.80;10.50;;;;;;;14.33;33.77;99007.84;104768;1253;72753;-62
2023/12/12 08:33:48;;;;;;;;;;;;;;;14.17;33.91;99002.75;104790;1254;61076;-60
2023/12/12 08:36:23;;;;;;;12.40;9.80;;;;;;;14.21;34.09;99000.00;105349;1254;62148;-60
2023/12/12 08:38:53;;;;;;;15.40;10.80;;;;;;;14.28;33.94;99001.65;104458;1253;73010;-61
2023/12/12 08:41:21;;;;;;;12.70;10.80;;;;;;;14.35;33.93;99004.52;105183;1250;68726;-61
2023/12/12 08:43:49;;;;;;;13.60;10.00;;;;;;;14.41;33.88;99006.75;104381;1265;72352;-61
2023/12/12 08:46:26;;;;;;;12.20;9.90;;;;;;;14.47;33.65;99010.73;107441;1253;60697;-59
2023/12/12 08:48:57;;;;;;;12.90;9.30;;;;;;;14.97;33.23;99007.09;107939;1251;60370;-62
2023/12/12 08:51:30;;;;;;;12.10;9.50;;;;;;;14.86;33.32;99007.56;108116;1250;72844;-62
2023/12/12 08:53:58;;;;;;;14.50;10.50;;;;;;;14.85;33.45;98997.69;107503;1250;70457;-62
2023/12/12 08:56:26;;;;;;;13.40;10.00;;;;;;;14.96;33.36;98994.80;108066;1253;72482;-61
2023/12/12 08:58:55;;;;;;;15.90;12.50;;;;;;;14.96;33.29;98999.92;108368;1251;60780;-60
2023/12/12 09:01:23;;;;;;;15.80;11.80;;;;;;;14.91;33.39;99004.14;106468;1254;60106;-61
2023/12/12 09:03:51;;;;;;;15.30;11.40;;;;;;;14.88;33.22;98997.84;105796;1251;73072;-62
2023/12/12 09:06:18;;;;;;;14.60;11.70;;;;;;;14.79;33.24;99000.95;104844;1266;70011;-63
2023/12/12 09:08:46;;;;;;;;;;;;;;;14.78;33.19;99000.64;105479;1251;72528;-63
2023/12/12 09:11:17;;;;;;;85.70;43.90;;;;;;;14.71;33.26;98997.63;105545;1256;60675;-62
2023/12/12 09:13:45;;;;;;;35.90;21.40;;;;;;;14.70;33.23;98998.20;105687;1251;60037;-62
2023/12/12 09:16:13;;;;;;;33.20;21.40;;;;;;;14.60;33.25;98993.61;105984;1251;72046;-65
2023/12/12 09:18:41;;;;;;;20.70;14.40;;;;;;;14.53;33.33;98984.92;105581;1250;69177;-62
2023/12/12 09:21:11;;;;;;;26.70;17.00;;;;;;;14.61;33.26;98977.35;105637;1256;71398;-62
2023/12/12 09:23:40;;;;;;;21.80;14.90;;;;;;;14.57;33.22;98968.96;105524;1255;59825;-58
2023/12/12 09:26:15;;;;;;;13.10;10.30;;;;;;;14.68;33.17;98966.41;105271;1251;59661;-62
2023/12/12 09:28:43;;;;;;;10.10;7.90;;;;;;;14.80;33.20;98973.70;108325;1251;73704;-63
2023/12/12 09:31:12;;;;;;;11.10;8.20;;;;;;;14.91;33.17;98970.64;108249;1250;69816;-62
2023/12/12 09:33:40;;;;;;;15.90;10.50;;;;;;;14.69;33.29;98979.40;107895;1251;71512;-66
2023/12/12 09:36:12;;;;;;;20.60;13.60;;;;;;;14.72;33.56;98969.70;107979;1250;64199;-62
2023/12/12 09:38:40;;;;;;;16.70;11.80;;;;;;;15.06;33.08;98964.63;107801;1251;60458;-61
2023/12/12 09:41:15;;;;;;;15.30;11.20;;;;;;;14.99;33.23;98963.22;108198;1251;72561;-61
2023/12/12 09:43:44;;;;;;;14.50;9.70;;;;;;;15.00;33.27;98960.83;108368;1250;69973;-61
2023/12/12 09:46:12;;;;;;;11.10;8.60;;;;;;;15.09;33.21;98957.36;108370;1251;72907;-61
2023/12/12 09:48:40;;;;;;;9.10;7.60;;;;;;;15.01;33.37;98963.26;107982;1253;60076;-61
2023/12/12 09:51:09;;;;;;;9.60;8.10;;;;;;;14.95;33.46;98954.46;108313;1251;60096;-61
2023/12/12 09:53:38;;;;;;;8.00;7.10;;;;;;;15.03;33.33;98954.83;108344;1252;72770;-62
2023/12/12 09:56:06;;;;;;;10.20;8.70;;;;;;;15.13;33.26;98953.17;108140;1251;70162;-62
2023/12/12 09:58:35;;;;;;;9.10;8.00;;;;;;;15.19;33.19;98950.27;108262;1253;74057;-62
2023/12/12 10:01:03;;;;;;;9.30;8.10;;;;;;;15.27;33.12;98942.08;108266;1253;61741;-62
2023/12/12 10:03:32;;;;;;;9.00;8.10;;;;;;;15.23;33.19;98936.94;108211;1252;59726;-61
2023/12/12 10:06:02;;;;;;;9.30;8.20;;;;;;;15.22;33.27;98933.61;108195;1251;75665;-61
2023/12/12 10:08:33;;;;;;;12.90;10.20;;;;;;;15.19;33.39;98942.72;108100;1251;69562;-62
2023/12/12 10:11:03;;;;;;;12.60;10.30;;;;;;;15.27;33.04;98949.33;107962;1251;71904;-61
2023/12/12 10:13:46;;;;;;;12.00;9.80;;;;;;;15.32;33.02;98948.59;108183;1251;61263;-61
2023/12/12 10:16:14;;;;;;;10.80;9.40;;;;;;;15.39;33.01;98944.06;108288;1251;60342;-61
2023/12/12 10:18:46;;;;;;;11.70;9.90;;;;;;;15.43;33.01;98953.14;108022;1251;74049;-61
2023/12/12 10:21:22;;;;;;;10.70;9.30;;;;;;;15.51;32.80;98956.05;108076;1251;69215;-62
2023/12/12 10:23:51;;;;;;;16.30;12.10;;;;;;;15.74;32.61;98949.45;107776;1251;72958;-61
2023/12/12 10:26:38;;;;;;;12.80;9.00;;;;;;;15.61;32.69;98949.13;108040;1253;61039;-61
2023/12/12 10:29:08;;;;;;;9.70;8.00;;;;;;;15.70;32.58;98949.67;107915;1251;63296;-62
2023/12/12 10:31:36;;;;;;;8.40;7.30;;;;;;;15.74;32.58;98948.17;108067;1251;74314;-64
2023/12/12 10:34:04;;;;;;;;;;;;;;;15.83;32.43;98945.75;108372;1251;71484;-63
2023/12/12 10:36:32;;;;;;;8.20;7.00;;;;;;;15.82;32.40;98938.04;108190;1253;73369;-62
2023/12/12 10:39:15;;;;;;;15.20;10.60;;;;;;;15.80;32.57;98943.33;108049;1253;61551;-61
2023/12/12 10:41:55;;;;;;;9.90;7.40;;;;;;;15.86;32.39;98942.34;108230;1251;59680;-62
2023/12/12 10:44:31;;;;;;;11.00;7.70;;;;;;;15.92;32.22;98946.80;107663;1251;73583;-60
2023/12/12 10:47:03;;;;;;;7.90;6.90;;;;;;;15.84;32.21;98949.02;108379;1251;69086;-60
2023/12/12 10:49:31;;;;;;;7.60;6.80;;;;;;;15.55;32.65;98946.27;108108;1251;73419;-60
2023/12/12 10:52:01;;;;;;;9.80;8.10;;;;;;;15.50;32.71;98949.24;108146;1251;60824;-61
2023/12/12 10:54:31;;;;;;;12.80;9.40;;;;;;;15.48;32.53;98951.28;108206;1251;59714;-63
2023/12/12 10:57:00;;;;;;;12.60;8.90;;;;;;;15.55;32.60;98955.08;108309;1251;74171;-66
2023/12/12 10:59:31;;;;;;;14.00;9.10;;;;;;;15.32;32.85;98962.57;108412;1251;70330;-66
2023/12/12 11:02:19;;;;;;;15.10;10.90;;;;;;;15.31;32.96;98960.33;108248;1253;71084;-62
2023/12/12 11:04:47;;;;;;;13.00;9.80;;;;;;;15.09;33.06;98965.63;108056;1253;60578;-63
2023/12/12 11:07:15;;;;;;;11.40;8.90;;;;;;;15.06;33.03;98971.70;108313;1251;59751;-63
2023/12/12 11:09:43;;;;;;;10.20;8.60;;;;;;;15.03;33.03;98963.98;108363;1251;72907;-63
2023/12/12 11:12:11;;;;;;;;;;;;;;;15.05;32.88;98968.98;108374;1252;69408;-61
2023/12/12 11:14:39;;;;;;;10.00;7.90;;;;;;;14.96;33.04;98969.40;108275;1251;72979;-62
2023/12/12 11:17:10;;;;;;;13.50;10.20;;;;;;;14.93;33.21;98969.24;107917;1251;60794;-62
2023/12/12 11:19:39;;;;;;;12.00;9.20;;;;;;;15.07;33.12;98969.50;108199;1251;59794;-63
2023/12/12 11:22:07;;;;;;;;;;;;;;;15.06;33.05;98966.39;108454;1253;72546;-65
2023/12/12 11:24:53;;;;;;;;;;;;;;;15.10;33.04;98964.73;108350;1251;69850;-63
2023/12/12 11:27:21;;;;;;;12.60;10.00;;;;;;;15.10;32.94;98965.55;108336;1251;72624;-62
2023/12/12 11:29:49;;;;;;;14.10;10.50;;;;;;;15.03;32.90;98963.77;107985;1252;60612;-61
2023/12/12 11:32:21;;;;;;;14.10;10.50;;;;;;;14.78;33.28;98961.89;108376;1251;58596;-62
2023/12/12 11:34:48;;;;;;;12.10;9.50;;;;;;;14.68;33.42;98959.55;108243;1251;73518;-62
2023/12/12 11:37:17;;;;;;;15.50;11.20;;;;;;;14.64;33.44;98966.38;108186;1251;70908;-68